Stations météo

réclame
Mon MeteoGroup
Stansted, Grande-Bretagne (3683): Température de l'air & dewpoint: 14.06.2018 06:00:00 - 20.06.2018 06:00:00 (BST)Stansted, Grande-Bretagne (3683): Vitesse du vent: 14.06.2018 06:00:00 - 20.06.2018 06:00:00 (BST)Stansted, Grande-Bretagne (3683): Direction du vent: 14.06.2018 06:00:00 - 20.06.2018 06:00:00 (BST)Stansted, Grande-Bretagne (3683): visibility: 14.06.2018 06:00:00 - 20.06.2018 06:00:00 (BST)
Date & Time tt [°C] td [°C] ff [km/h] ff [knt] dd vv [km]
20.06.2018 06:00:00 16,0 15,0 16 9 SW 5
20.06.2018 05:00:00 15,0 15,0 13 7 SSW 8
20.06.2018 04:00:00 15,0 14,0 11 6 SW 9
20.06.2018 03:00:00 14,0 14,0 9 5 SW 10
20.06.2018 02:00:00 15,0 14,0 11 6 SSW 10
20.06.2018 01:00:00 16,0 15,0 9 5 SSW 10
20.06.2018 00:00:00 18,0 16,0 13 7 SW 10
19.06.2018 23:00:00 18,0 16,0 15 8 SW 10
19.06.2018 22:00:00 20,0 16,0 11 6 WSW 10
19.06.2018 21:00:00 22,0 16,0 15 8 WSW 10
19.06.2018 20:00:00 23,0 16,0 15 8 WSW 10
19.06.2018 19:00:00 23,0 16,0 18 10 WSW 10
19.06.2018 18:00:00 24,0 16,0 22 12 SW 10
19.06.2018 17:00:00 24,0 16,0 18 10 WSW 10
19.06.2018 16:00:00 24,0 16,0 18 10 SW 10
19.06.2018 15:00:00 24,0 15,0 18 10 WSW 10
19.06.2018 14:00:00 24,0 15,0 15 8 WSW 10
19.06.2018 13:00:00 22,0 15,0 13 7 WSW 10
19.06.2018 12:00:00 21,0 15,0 13 7 SW 10
19.06.2018 11:00:00 21,0 14,0 13 7 WSW 10
19.06.2018 10:00:00 21,0 14,0 13 7 WSW 10
19.06.2018 09:00:00 19,0 14,0 11 6 W 10
19.06.2018 08:00:00 18,0 14,0 11 6 W 10
19.06.2018 07:00:00 17,0 14,0 13 7 W 10
19.06.2018 06:00:00 17,0 14,0 13 7 W 10
19.06.2018 05:00:00 17,0 14,0 15 8 WSW 10
19.06.2018 04:00:00 17,0 14,0 16 9 W 10
19.06.2018 03:00:00 17,0 14,0 15 8 W 10
19.06.2018 02:00:00 17,0 15,0 18 10 W 10
19.06.2018 01:00:00 18,0 15,0 22 12 W 10
19.06.2018 00:00:00 18,0 15,0 18 10 WSW 10
18.06.2018 23:00:00 19,0 15,0 24 13 WSW 10
18.06.2018 22:00:00 20,0 15,0 24 13 WSW 10
18.06.2018 21:00:00 21,0 15,0 28 15 WSW 10
18.06.2018 20:00:00 21,0 15,0 16 9 W 10
18.06.2018 19:00:00 22,0 14,0 18 10 W 10
18.06.2018 18:00:00 23,0 14,0 26 14 W 10
18.06.2018 17:00:00 25,0 14,0 22 12 W 10
18.06.2018 16:00:00 24,0 13,0 22 12 W 10
18.06.2018 15:00:00 24,0 12,0 16 9 W 10
18.06.2018 14:00:00 23,0 12,0 21 11 W 10
18.06.2018 13:00:00 22,0 12,0 21 11 WSW 10
18.06.2018 12:00:00 21,0 12,0 21 11 W 10
18.06.2018 11:00:00 19,0 12,0 21 11 W 10
18.06.2018 10:00:00 17,0 13,0 21 11 WSW 10
18.06.2018 09:00:00 15,0 12,0 15 8 W 10
18.06.2018 08:00:00 15,0 12,0 18 10 WSW 10
18.06.2018 07:00:00 15,0 12,0 16 9 WSW 10
18.06.2018 06:00:00 15,0 13,0 11 6 W 10
18.06.2018 05:00:00 15,0 15,0 15 8 WSW 10
18.06.2018 04:00:00 15,0 15,0 15 8 SW 4,9
18.06.2018 03:00:00 15,0 14,0 16 9 SW 8
18.06.2018 02:00:00 15,0 14,0 16 9 SW 10
18.06.2018 01:00:00 15,0 14,0 21 11 SW 10
18.06.2018 00:00:00 15,0 14,0 15 8 SW 10
17.06.2018 23:00:00 15,0 13,0 18 10 SW 10
17.06.2018 22:00:00 15,0 13,0 18 10 SSW 10
17.06.2018 21:00:00 15,0 13,0 26 14 SSW 10
17.06.2018 20:00:00 16,0 12,0 28 15 SW 10
17.06.2018 19:00:00 17,0 12,0 29 16 SW 10
17.06.2018 18:00:00 17,0 11,0 26 14 SW 10
17.06.2018 17:00:00 17,0 11,0 26 14 SW 10
17.06.2018 16:00:00 17,0 11,0 18 10 SW 10
17.06.2018 15:00:00 18,0 10,0 22 12 SW 10
17.06.2018 14:00:00 18,0 10,0 24 13 SW 10
17.06.2018 13:00:00 18,0 9,0 22 12 WSW 10
17.06.2018 12:00:00 17,0 10,0 21 11 SW 10
17.06.2018 11:00:00 16,0 11,0 18 10 SW 10
17.06.2018 10:00:00 15,0 12,0 11 6 WSW 10
17.06.2018 09:00:00 13,0 12,0 16 9 WSW 10
17.06.2018 08:00:00 13,0 11,0 18 10 WSW 10
17.06.2018 07:00:00 13,0 10,0 13 7 WSW 10
17.06.2018 06:00:00 12,0 10,0 13 7 SW 10
17.06.2018 05:00:00 11,0 9,0 13 7 SW 10
17.06.2018 04:00:00 11,0 9,0 15 8 WSW 10
17.06.2018 03:00:00 11,0 9,0 11 6 WSW 10
17.06.2018 02:00:00 12,0 9,0 15 8 WSW 10
17.06.2018 01:00:00 13,0 9,0 15 8 WSW 10
17.06.2018 00:00:00 13,0 8,0 16 9 WSW 10
16.06.2018 23:00:00 13,0 8,0 15 8 WSW 10
16.06.2018 22:00:00 15,0 10,0 22 12 WSW 10
16.06.2018 21:00:00 16,0 12,0 26 14 SW 10
16.06.2018 20:00:00 17,0 12,0 26 14 SSW 10
16.06.2018 19:00:00 17,0 12,0 28 15 SW 10
16.06.2018 18:00:00 18,0 12,0 26 14 SW 10
16.06.2018 17:00:00 18,0 11,0 29 16 SW 10
16.06.2018 16:00:00 20,0 11,0 26 14 SW 10
16.06.2018 15:00:00 19,0 10,0 26 14 WSW 10
16.06.2018 14:00:00 19,0 9,0 22 12 WSW 10
16.06.2018 13:00:00 20,0 9,0 21 11 SW 10
16.06.2018 12:00:00 19,0 9,0 21 11 WSW 10
16.06.2018 11:00:00 17,0 9,0 16 9 WSW 10
16.06.2018 10:00:00 16,0 9,0 15 8 SW 10
16.06.2018 09:00:00 15,0 9,0 11 6 WSW 10
16.06.2018 08:00:00 14,0 9,0 11 6 WSW 10
16.06.2018 07:00:00 13,0 9,0 9 5 WSW 10
16.06.2018 06:00:00 13,0 9,0 8 4 WSW 10
16.06.2018 05:00:00 11,0 9,0 8 4 S 10
16.06.2018 04:00:00 12,0 9,0 8 4 SW 10
16.06.2018 03:00:00 13,0 8,0 4 2 SW 10
16.06.2018 02:00:00 13,0 8,0 4 2 W 10
16.06.2018 01:00:00 13,0 8,0 5 3 - 10
16.06.2018 00:00:00 14,0 7,0 2 1 NW 10
15.06.2018 23:00:00 16,0 8,0 4 2 NW 10
15.06.2018 22:00:00 16,0 8,0 5 3 W 10
15.06.2018 21:00:00 18,0 9,0 5 3 WNW 10
15.06.2018 20:00:00 19,0 7,0 9 5 W 10
15.06.2018 19:00:00 20,0 7,0 15 8 W 10
15.06.2018 18:00:00 21,0 9,0 13 7 W 10
15.06.2018 17:00:00 21,0 9,0 15 8 W 10
15.06.2018 16:00:00 22,0 8,0 15 8 WSW 10
15.06.2018 15:00:00 22,0 8,0 15 8 SW 10
15.06.2018 14:00:00 21,0 9,0 16 9 SSW 10
15.06.2018 13:00:00 20,0 8,0 11 6 SSW 10
15.06.2018 12:00:00 20,0 9,0 13 7 SW 10
15.06.2018 11:00:00 19,0 8,0 8 4 - 10
15.06.2018 10:00:00 18,0 8,0 4 2 - 10
15.06.2018 09:00:00 16,0 10,0 8 4 NW 10
15.06.2018 08:00:00 15,0 9,0 8 4 NW 10
15.06.2018 07:00:00 14,0 8,0 5 3 NW 10
15.06.2018 06:00:00 12,0 8,0 5 3 NW 10
15.06.2018 05:00:00 11,0 7,0 2 1 NNW 10
15.06.2018 04:00:00 12,0 7,0 5 3 NW 10
15.06.2018 03:00:00 13,0 7,0 5 3 NNW 10
15.06.2018 02:00:00 14,0 8,0 4 2 - 10
15.06.2018 01:00:00 15,0 8,0 9 5 NW 10
15.06.2018 00:00:00 15,0 9,0 5 3 NW 10
14.06.2018 23:00:00 14,0 8,0 5 3 NW 10
14.06.2018 22:00:00 16,0 8,0 4 2 WNW 10
14.06.2018 21:00:00 18,0 8,0 8 4 WNW 10
14.06.2018 20:00:00 19,0 9,0 13 7 NW 10
14.06.2018 19:00:00 21,0 9,0 16 9 WNW 10
14.06.2018 18:00:00 21,0 9,0 18 10 W 10
14.06.2018 17:00:00 22,0 10,0 18 10 WNW 10
14.06.2018 16:00:00 22,0 9,0 21 11 W 10
14.06.2018 15:00:00 21,0 11,0 22 12 W 10
14.06.2018 14:00:00 21,0 11,0 24 13 W 10
14.06.2018 13:00:00 19,0 14,0 24 13 WSW 10
14.06.2018 12:00:00 17,0 14,0 31 17 SW 10
14.06.2018 11:00:00 16,0 13,0 34 18 SW 10
14.06.2018 10:00:00 15,0 13,0 37 20 SW 10
14.06.2018 09:00:00 15,0 12,0 35 19 SSW 10
14.06.2018 08:00:00 16,0 12,0 34 18 SSW 10
14.06.2018 07:00:00 15,0 11,0 31 17 SSW 10
14.06.2018 06:00:00 14,0 11,0 28 15 SSW 10

tt = Température de l'air
td = dewpoint
ff = Vitesse du vent
dd = Direction du vent
vv = visibility

stations d'obs. à proximité